« Back
NWS Peachtree City, Ga » Text Product » CSG Terminal Aerodrome Forecast


Printer-friendly Version
Current Version              Previous Versions:   1  2  3  4  5  6  7  8  9  

Terminal Aerodrome Forecast

633
FTUS42 KFFC 302300 RRA
TAFCSG
TAF
KCSG 302341Z 3100/3124 02004KT P6SM SKC
     FM310200 06003KT P6SM SCT250
     FM311600 11004KT P6SM SCT040 SCT250
     FM311800 09005KT P6SM BKN050=

USA.gov is the U.S. government's official web portal to all federal, state and local government web resources and services.